Terminal Aerodrome Forecast
Issued by NWS Cleveland, OH

Home | Current Version | Previous Version | Graphics & Text | Print | Product List | Glossary On
Versions: 1 2 3 4 5 6 7 8 9 10 11 12 13 14 15 16 17 18 19
000
FTUS41 KCLE 282300
TAFYNG
TAF
KYNG 282338Z 2900/2924 33007KT P6SM SCT040 BKN060
     FM290300 31004KT P6SM BKN040
     FM291400 29007KT P6SM BKN035
     FM292000 28007KT P6SM VCSH BKN050=

USA.gov is the U.S. government's official web portal to all federal, state and local government web resources and services.